Time;durP1;ratioP1;P1;durP2;ratioP2;P2;SDS_P1;SDS_P2;PMS_P1;PMS_P2;Temp;Humidity;BMP_temperature;BMP_pressure;BME280_temperature;BME280_humidity;BME280_pressure;Samples;Min_cycle;Max_cycle;Signal;HPM_P1;HPM_P2
2022/05/21 00:01:59;;;;;;;25.70;16.50;;;11.30;99.90;;;;;;5080762;28;20044;-52
2022/05/21 00:04:28;;;;;;;27.55;17.20;;;11.40;99.90;;;;;;5083477;28;20108;-52
2022/05/21 00:06:55;;;;;;;23.92;17.80;;;11.50;99.90;;;;;;5073949;28;20094;-53
2022/05/21 00:09:20;;;;;;;28.42;17.63;;;11.50;99.90;;;;;;5114618;27;20043;-50
2022/05/21 00:11:46;;;;;;;28.60;19.02;;;11.60;99.90;;;;;;5080105;28;20416;-54
2022/05/21 00:14:12;;;;;;;29.33;20.27;;;11.70;99.90;;;;;;5099151;27;20058;-51
2022/05/21 00:16:38;;;;;;;32.50;19.05;;;11.80;99.90;;;;;;5112248;27;20057;-53
2022/05/21 00:19:04;;;;;;;30.48;19.52;;;11.90;99.90;;;;;;5101177;27;20043;-50
2022/05/21 00:21:30;;;;;;;28.67;19.45;;;11.90;99.90;;;;;;5084214;28;20083;-52
2022/05/21 00:23:55;;;;;;;25.25;19.63;;;12.00;99.90;;;;;;5097755;27;20457;-51
2022/05/21 00:26:21;;;;;;;22.98;18.20;;;12.00;99.90;;;;;;5085046;28;20055;-49
2022/05/21 00:28:49;;;;;;;25.02;18.55;;;12.10;99.90;;;;;;5091843;28;20117;-53
2022/05/21 00:31:17;;;;;;;26.83;17.58;;;12.10;99.90;;;;;;5090397;27;20086;-51
2022/05/21 00:33:44;;;;;;;23.67;15.55;;;12.10;99.90;;;;;;5082590;27;20100;-53
2022/05/21 00:36:11;;;;;;;22.10;15.30;;;12.20;99.90;;;;;;5075864;27;20058;-56
2022/05/21 00:38:38;;;;;;;25.45;16.55;;;12.30;99.90;;;;;;5114900;27;20518;-49
2022/05/21 00:41:06;;;;;;;22.90;13.30;;;12.30;99.90;;;;;;5088463;27;20052;-50
2022/05/21 00:43:59;;;;;;;19.65;15.32;;;12.30;99.90;;;;;;5085109;28;20433;-51
2022/05/21 00:46:38;;;;;;;19.45;12.82;;;12.40;99.90;;;;;;4985758;28;20667;-53
2022/05/21 00:49:06;;;;;;;25.73;11.80;;;12.40;99.90;;;;;;4973115;28;20653;-53
2022/05/21 00:51:55;;;;;;;24.38;13.05;;;12.50;99.90;;;;;;4999515;28;20054;-52
2022/05/21 00:54:26;;;;;;;20.85;12.27;;;12.60;99.90;;;;;;4983462;28;20058;-49
2022/05/21 00:56:56;;;;;;;16.88;9.88;;;12.70;99.90;;;;;;4982863;28;20145;-52
2022/05/21 01:02:09;;;;;;;18.02;9.40;;;12.70;99.90;;;;;;4999828;28;20060;-47
2022/05/21 01:04:36;;;;;;;19.90;9.90;;;12.80;99.90;;;;;;4983940;28;20066;-48
2022/05/21 01:07:03;;;;;;;21.98;9.52;;;12.80;99.90;;;;;;4995390;28;20047;-55
2022/05/21 01:09:32;;;;;;;16.23;9.05;;;12.80;99.90;;;;;;4991821;28;20566;-49
2022/05/21 01:11:59;;;;;;;27.98;10.50;;;12.70;99.90;;;;;;4993838;28;20077;-47
2022/05/21 01:14:25;;;;;;;23.85;9.70;;;12.80;99.90;;;;;;4973015;28;20054;-51
2022/05/21 01:16:51;;;;;;;25.33;10.70;;;12.80;99.90;;;;;;4984956;28;20102;-55
2022/05/21 01:19:17;;;;;;;26.50;11.43;;;12.80;99.90;;;;;;4978560;28;20560;-52
2022/05/21 01:21:43;;;;;;;23.00;9.63;;;12.90;99.90;;;;;;4977096;28;20149;-52
2022/05/21 01:24:11;;;;;;;20.48;9.98;;;12.90;99.90;;;;;;5052402;28;20384;-51
2022/05/21 01:26:39;;;;;;;24.65;10.20;;;12.90;99.90;;;;;;5080530;28;20051;-52
2022/05/21 01:29:11;;;;;;;24.70;10.30;;;12.90;99.90;;;;;;5057724;28;20047;-55
2022/05/21 01:31:39;;;;;;;20.50;10.20;;;12.80;99.90;;;;;;5076309;28;20489;-50
2022/05/21 01:34:05;;;;;;;25.05;12.10;;;12.90;99.90;;;;;;5080543;28;20056;-49
2022/05/21 01:36:30;;;;;;;20.10;9.10;;;12.80;99.90;;;;;;5058837;28;20036;-51
2022/05/21 01:38:56;;;;;;;23.42;11.82;;;12.90;99.90;;;;;;5079545;28;20071;-53
2022/05/21 01:41:22;;;;;;;23.20;9.90;;;12.90;99.90;;;;;;5080912;28;20040;-49
2022/05/21 01:46:33;;;;;;;21.42;10.15;;;12.90;99.90;;;;;;5080200;28;20133;-51
2022/05/21 01:48:58;;;;;;;24.63;10.25;;;12.80;99.90;;;;;;5078595;28;20117;-50
2022/05/21 01:51:24;;;;;;;24.10;10.38;;;12.90;99.90;;;;;;5080723;28;20537;-51
2022/05/21 01:53:50;;;;;;;24.08;10.32;;;12.80;99.90;;;;;;5081064;28;20446;-49
2022/05/21 01:56:16;;;;;;;23.83;7.60;;;12.90;99.90;;;;;;5080103;28;20099;-52
2022/05/21 01:58:42;;;;;;;31.27;8.32;;;12.80;99.90;;;;;;5060967;28;20559;-52
2022/05/21 02:01:09;;;;;;;23.90;8.15;;;12.90;99.90;;;;;;5065662;28;20040;-49
2022/05/21 02:03:35;;;;;;;29.17;8.65;;;12.90;99.90;;;;;;5080966;28;20163;-50
2022/05/21 02:06:03;;;;;;;25.75;8.27;;;12.90;99.90;;;;;;5063949;28;20059;-53
2022/05/21 02:08:32;;;;;;;21.83;7.20;;;12.90;99.90;;;;;;5060854;28;20056;-50
2022/05/21 02:10:58;;;;;;;21.50;8.48;;;12.90;99.90;;;;;;5080509;28;20154;-48
2022/05/21 02:13:29;;;;;;;25.55;9.25;;;12.80;99.90;;;;;;5059909;28;20498;-49
2022/05/21 02:15:56;;;;;;;23.42;7.65;;;12.80;99.90;;;;;;5080631;28;20062;-49
2022/05/21 02:18:22;;;;;;;24.75;8.00;;;12.90;99.90;;;;;;5079878;28;20165;-52
2022/05/21 02:20:49;;;;;;;28.10;8.90;;;12.80;99.90;;;;;;5065783;28;20071;-51
2022/05/21 02:23:15;;;;;;;28.42;8.65;;;12.80;99.90;;;;;;5081199;28;20036;-54
2022/05/21 02:25:41;;;;;;;28.55;8.88;;;12.80;99.90;;;;;;5080165;28;20657;-53
2022/05/21 02:28:07;;;;;;;22.30;7.22;;;12.80;99.90;;;;;;5074486;28;20112;-47
2022/05/21 02:30:33;;;;;;;33.20;8.85;;;12.80;99.90;;;;;;5069160;28;20510;-50
2022/05/21 02:32:59;;;;;;;24.10;7.72;;;12.80;99.90;;;;;;5075741;28;20494;-48
2022/05/21 02:35:25;;;;;;;24.30;6.93;;;12.80;99.90;;;;;;5054513;28;20044;-54
2022/05/21 02:40:35;;;;;;;19.85;6.65;;;12.80;99.90;;;;;;5069722;28;20052;-54
2022/05/21 02:43:01;;;;;;;25.58;7.38;;;12.80;99.90;;;;;;5060975;28;20320;-52
2022/05/21 02:45:28;;;;;;;19.73;6.43;;;12.90;99.90;;;;;;5080320;28;20392;-53
2022/05/21 02:47:55;;;;;;;35.42;8.23;;;12.80;99.90;;;;;;5049198;28;20087;-53
2022/05/21 02:50:24;;;;;;;20.58;7.30;;;12.80;99.90;;;;;;5079359;28;20158;-55
2022/05/21 02:52:50;;;;;;;27.05;6.80;;;12.90;99.90;;;;;;5061344;28;20093;-50
2022/05/21 02:55:17;;;;;;;20.25;5.65;;;12.90;99.90;;;;;;5061142;28;20394;-53
2022/05/21 02:57:43;;;;;;;23.70;6.32;;;12.90;99.90;;;;;;5061131;28;20044;-56
2022/05/21 03:00:29;;;;;;;22.73;5.95;;;12.80;99.90;;;;;;5082606;28;20124;-52
2022/05/21 03:02:56;;;;;;;17.67;5.72;;;12.90;99.90;;;;;;5065534;28;20046;-48
2022/05/21 03:05:22;;;;;;;28.50;7.03;;;12.90;99.90;;;;;;5091627;28;20434;-53
2022/05/21 03:07:50;;;;;;;22.52;6.60;;;12.90;99.90;;;;;;5082704;28;20595;-49
2022/05/21 03:10:22;;;;;;;24.40;5.40;;;12.80;99.90;;;;;;5082789;28;20039;-49
2022/05/21 03:12:53;;;;;;;18.45;5.70;;;12.80;99.90;;;;;;5096916;28;20457;-51
2022/05/21 03:15:22;;;;;;;20.83;6.20;;;12.90;99.90;;;;;;5093800;28;20514;-54
2022/05/21 03:17:48;;;;;;;24.60;5.85;;;12.90;99.90;;;;;;5071705;28;20056;-51
2022/05/21 03:20:15;;;;;;;23.67;5.93;;;12.90;99.90;;;;;;5083315;28;20051;-56
2022/05/21 03:22:42;;;;;;;20.00;5.07;;;12.80;99.90;;;;;;5082074;28;20065;-52
2022/05/21 03:25:09;;;;;;;26.23;5.80;;;12.80;99.90;;;;;;5084048;28;20578;-47
2022/05/21 03:27:35;;;;;;;21.48;5.43;;;12.80;99.90;;;;;;5084548;28;20098;-49
2022/05/21 03:30:02;;;;;;;21.25;6.53;;;12.80;99.90;;;;;;5078706;28;20051;-53
2022/05/21 03:32:28;;;;;;;22.25;6.60;;;12.90;99.90;;;;;;5086260;28;20058;-44
2022/05/21 03:34:53;;;;;;;18.88;4.95;;;12.90;99.90;;;;;;5069641;28;20796;-56
2022/05/21 03:37:19;;;;;;;20.33;4.60;;;12.80;99.90;;;;;;5076631;28;20055;-52
2022/05/21 03:39:45;;;;;;;20.05;4.97;;;12.80;99.90;;;;;;5082601;28;20698;-51
2022/05/21 03:42:11;;;;;;;18.10;4.97;;;12.90;99.90;;;;;;5064487;28;20052;-51
2022/05/21 03:44:36;;;;;;;17.65;4.75;;;12.90;99.90;;;;;;5082295;28;20379;-52
2022/05/21 03:47:02;;;;;;;17.85;5.93;;;12.90;99.90;;;;;;5056785;28;20052;-54
2022/05/21 03:49:29;;;;;;;20.73;5.65;;;12.90;99.90;;;;;;5048414;28;20813;-53
2022/05/21 03:51:54;;;;;;;22.58;5.72;;;12.90;99.90;;;;;;5082070;28;20052;-53
2022/05/21 03:54:21;;;;;;;21.02;5.55;;;13.00;99.90;;;;;;5063618;28;20048;-55
2022/05/21 03:56:47;;;;;;;16.65;5.93;;;13.00;99.90;;;;;;5064815;28;20553;-53
2022/05/21 03:59:13;;;;;;;21.42;6.25;;;13.00;99.90;;;;;;5081896;28;20104;-51
2022/05/21 04:01:41;;;;;;;26.63;6.22;;;13.10;99.90;;;;;;5082990;28;20055;-53
2022/05/21 04:04:07;;;;;;;20.90;5.68;;;13.10;99.90;;;;;;5083250;28;20051;-50
2022/05/21 04:06:33;;;;;;;14.55;4.55;;;13.00;99.90;;;;;;5055991;28;20400;-55
2022/05/21 04:08:59;;;;;;;24.75;5.47;;;13.10;99.90;;;;;;5048872;28;20055;-50
2022/05/21 04:11:25;;;;;;;23.92;5.00;;;13.10;99.90;;;;;;5082634;28;20044;-53
2022/05/21 04:13:51;;;;;;;21.23;5.32;;;13.10;99.90;;;;;;5082049;28;20380;-51
2022/05/21 04:16:16;;;;;;;18.60;6.13;;;13.10;99.90;;;;;;5064110;28;20047;-52
2022/05/21 04:18:42;;;;;;;22.90;5.45;;;13.10;99.90;;;;;;5052454;28;20059;-52
2022/05/21 04:21:08;;;;;;;24.30;6.38;;;13.10;99.90;;;;;;5081233;28;20044;-52
2022/05/21 04:23:34;;;;;;;21.80;6.15;;;13.10;99.90;;;;;;5054121;28;20052;-52
2022/05/21 04:26:00;;;;;;;15.95;4.35;;;13.10;99.90;;;;;;5080547;28;20464;-50
2022/05/21 04:28:25;;;;;;;16.90;5.35;;;13.00;99.90;;;;;;5080223;28;20072;-50
2022/05/21 04:30:51;;;;;;;17.90;4.72;;;13.10;99.90;;;;;;5071709;28;20222;-50
2022/05/21 04:33:17;;;;;;;16.15;4.03;;;13.00;99.90;;;;;;5049810;28;20369;-49
2022/05/21 04:38:27;;;;;;;19.00;4.97;;;13.10;99.90;;;;;;5081065;28;20113;-51
2022/05/21 04:40:58;;;;;;;18.25;4.05;;;13.10;99.90;;;;;;5063281;28;20871;-52
2022/05/21 04:43:24;;;;;;;14.23;3.70;;;13.10;99.90;;;;;;5081687;28;20051;-49
2022/05/21 04:45:49;;;;;;;14.30;3.90;;;13.10;99.90;;;;;;5084333;28;20052;-48
2022/05/21 04:48:15;;;;;;;12.30;4.03;;;13.20;99.90;;;;;;5065578;28;20052;-50
2022/05/21 04:50:41;;;;;;;16.17;3.92;;;13.30;99.90;;;;;;5082351;28;20059;-48
2022/05/21 04:53:07;;;;;;;9.43;4.35;;;13.30;99.90;;;;;;5068840;28;20150;-47
2022/05/21 04:55:33;;;;;;;15.25;3.83;;;13.40;99.90;;;;;;5071277;28;20491;-47
2022/05/21 04:57:59;;;;;;;15.48;4.40;;;13.40;99.90;;;;;;5075368;28;20055;-52
2022/05/21 05:00:25;;;;;;;15.65;3.47;;;13.50;99.90;;;;;;5081620;28;20044;-50
2022/05/21 05:02:51;;;;;;;16.08;4.68;;;13.50;99.90;;;;;;5062655;28;20541;-54
2022/05/21 05:05:17;;;;;;;12.13;3.67;;;13.50;99.90;;;;;;5080392;28;20063;-52
2022/05/21 05:07:43;;;;;;;15.93;3.50;;;13.50;99.90;;;;;;5096817;28;20039;-51
2022/05/21 05:10:09;;;;;;;14.20;4.13;;;13.60;99.90;;;;;;5081840;28;20120;-48
2022/05/21 05:12:35;;;;;;;21.60;4.63;;;13.70;99.90;;;;;;5072713;28;20138;-50
2022/05/21 05:15:01;;;;;;;14.23;3.88;;;13.70;99.90;;;;;;5063171;28;20126;-45
2022/05/21 05:17:27;;;;;;;12.68;4.10;;;13.70;99.90;;;;;;5061999;28;20096;-47
2022/05/21 05:19:54;;;;;;;15.38;4.10;;;13.70;99.90;;;;;;5079751;28;20538;-50
2022/05/21 05:22:21;;;;;;;17.88;4.30;;;13.80;99.90;;;;;;5085213;28;20047;-51
2022/05/21 05:24:47;;;;;;;13.48;4.25;;;14.40;99.90;;;;;;5078567;28;20087;-48
2022/05/21 05:27:12;;;;;;;19.83;4.95;;;14.80;99.90;;;;;;5085708;28;20126;-54
2022/05/21 05:29:38;;;;;;;13.48;3.92;;;15.00;99.90;;;;;;5067745;28;20056;-50
2022/05/21 05:32:05;;;;;;;14.63;3.80;;;15.10;99.90;;;;;;5077093;28;20049;-49
2022/05/21 05:34:31;;;;;;;17.30;5.25;;;15.20;99.90;;;;;;5077577;28;20051;-52
2022/05/21 05:36:57;;;;;;;12.80;3.53;;;15.30;99.90;;;;;;5073656;28;20404;-50
2022/05/21 05:39:23;;;;;;;15.90;3.72;;;15.20;99.90;;;;;;5062693;28;20121;-52
2022/05/21 05:41:49;;;;;;;12.95;3.20;;;15.00;99.90;;;;;;5080657;28;20600;-52
2022/05/21 05:44:14;;;;;;;17.15;4.10;;;14.80;99.90;;;;;;5080692;28;20122;-51
2022/05/21 05:46:40;;;;;;;16.98;3.72;;;14.80;99.90;;;;;;5063082;28;20386;-55
2022/05/21 05:49:06;;;;;;;15.48;4.57;;;14.70;99.90;;;;;;5062567;28;20117;-50
2022/05/21 05:51:32;;;;;;;16.02;4.28;;;14.70;99.90;;;;;;5061032;28;20481;-51
2022/05/21 05:53:59;;;;;;;13.93;3.47;;;14.80;99.90;;;;;;5062231;28;20051;-54
2022/05/21 05:56:25;;;;;;;15.57;3.65;;;15.60;99.90;;;;;;5061526;28;20056;-51
2022/05/21 06:01:35;;;;;;;14.00;3.40;;;16.00;99.90;;;;;;5073367;28;20104;-53
2022/05/21 06:04:02;;;;;;;13.82;3.00;;;16.40;99.90;;;;;;5080649;28;20142;-53
2022/05/21 06:06:28;;;;;;;11.32;3.85;;;17.20;99.90;;;;;;5056354;28;20052;-51
2022/05/21 06:08:54;;;;;;;14.63;4.72;;;18.40;99.90;;;;;;5073622;28;20063;-53
2022/05/21 06:11:20;;;;;;;12.52;3.40;;;19.40;99.90;;;;;;5080659;28;20048;-53
2022/05/21 06:13:46;;;;;;;9.82;3.25;;;20.30;99.90;;;;;;5080111;28;20070;-51
2022/05/21 06:16:14;;;;;;;13.60;3.47;;;21.70;99.90;;;;;;5080652;28;20643;-54
2022/05/21 06:18:45;;;;;;;14.65;3.60;;;22.20;99.90;;;;;;5079283;28;20128;-52
2022/05/21 06:21:11;;;;;;;11.23;3.78;;;21.20;99.90;;;;;;5042951;28;20056;-51
2022/05/21 06:23:37;;;;;;;13.07;3.42;;;21.10;99.90;;;;;;5078188;28;20062;-51
2022/05/21 06:26:04;;;;;;;13.10;3.65;;;21.40;99.90;;;;;;5080416;28;20055;-54
2022/05/21 06:28:30;;;;;;;11.77;3.63;;;21.60;99.90;;;;;;5078026;28;20060;-55
2022/05/21 06:30:56;;;;;;;9.88;3.30;;;21.40;99.90;;;;;;5066888;28;20057;-54
2022/05/21 06:33:28;;;;;;;14.75;3.38;;;20.30;99.90;;;;;;5081711;28;20048;-50
2022/05/21 06:36:22;;;;;;;10.63;3.42;;;20.20;99.90;;;;;;5083687;28;20502;-49
2022/05/21 06:38:48;;;;;;;10.73;3.20;;;21.10;99.90;;;;;;5084724;28;20136;-49
2022/05/21 06:41:14;;;;;;;11.05;3.50;;;20.90;99.90;;;;;;5093974;28;20043;-52
2022/05/21 06:43:39;;;;;;;15.10;4.75;;;20.50;99.90;;;;;;5084171;28;20438;-52
2022/05/21 06:46:05;;;;;;;10.38;3.30;;;19.70;99.90;;;;;;5081282;28;20083;-54
2022/05/21 06:48:31;;;;;;;11.98;3.20;;;19.70;99.90;;;;;;5081013;28;20051;-50
2022/05/21 06:50:59;;;;;;;11.45;3.20;;;20.10;99.90;;;;;;5085833;28;20149;-53
2022/05/21 06:53:25;;;;;;;8.43;3.03;;;20.70;99.90;;;;;;5083319;28;20052;-52
2022/05/21 06:55:51;;;;;;;11.48;3.00;;;20.60;99.90;;;;;;5078038;28;20044;-54
2022/05/21 06:58:17;;;;;;;14.70;4.20;;;20.20;99.90;;;;;;5091467;28;20399;-54
2022/05/21 07:00:43;;;;;;;12.43;3.30;;;20.10;99.90;;;;;;5097260;28;20424;-51
2022/05/21 07:03:15;;;;;;;13.88;3.28;;;19.90;99.90;;;;;;5084878;28;20112;-48
2022/05/21 07:08:27;;;;;;;10.63;3.22;;;20.40;99.90;;;;;;5078497;28;20052;-54
2022/05/21 07:10:53;;;;;;;11.80;3.65;;;21.10;99.90;;;;;;5083843;28;20052;-55
2022/05/21 07:13:20;;;;;;;10.93;3.10;;;21.30;99.90;;;;;;5103721;28;20054;-46
2022/05/21 07:15:49;;;;;;;13.20;3.50;;;21.30;99.90;;;;;;5090393;28;20043;-52
2022/05/21 07:18:19;;;;;;;10.35;3.28;;;20.90;99.90;;;;;;5090948;28;20134;-53
2022/05/21 07:20:46;;;;;;;11.50;3.78;;;20.00;99.90;;;;;;5084297;28;20089;-53
2022/05/21 07:23:12;;;;;;;12.50;4.10;;;20.10;99.90;;;;;;5084034;28;20048;-53
2022/05/21 07:25:40;;;;;;;15.38;3.90;;;20.10;99.90;;;;;;5084127;28;20054;-49
2022/05/21 07:28:07;;;;;;;9.85;3.10;;;20.30;99.90;;;;;;5084870;28;20204;-52
2022/05/21 07:30:34;;;;;;;9.75;4.05;;;20.10;99.90;;;;;;5077520;28;20506;-51
2022/05/21 07:33:00;;;;;;;11.98;3.92;;;20.20;99.90;;;;;;5089893;28;20052;-53
2022/05/21 07:35:27;;;;;;;11.85;3.45;;;20.10;99.90;;;;;;5089339;28;20075;-54
2022/05/21 07:37:54;;;;;;;10.85;3.90;;;20.00;99.90;;;;;;5087842;28;20383;-54
2022/05/21 07:40:23;;;;;;;12.48;3.25;;;19.60;99.90;;;;;;5101475;28;20039;-50
2022/05/21 07:42:49;;;;;;;10.05;3.83;;;19.20;99.90;;;;;;5088196;28;20087;-46
2022/05/21 07:45:17;;;;;;;15.30;4.13;;;19.20;99.90;;;;;;5079044;28;20443;-54
2022/05/21 07:47:47;;;;;;;13.23;4.18;;;19.60;99.90;;;;;;5097953;28;20043;-52
2022/05/21 07:50:14;;;;;;;16.42;4.32;;;19.60;99.90;;;;;;5090432;28;20044;-51
2022/05/21 07:52:41;;;;;;;12.73;3.17;;;19.60;99.90;;;;;;5088001;28;20639;-55
2022/05/21 07:55:09;;;;;;;16.23;4.30;;;19.80;99.90;;;;;;5092156;28;20059;-49
2022/05/21 07:57:35;;;;;;;13.32;3.10;;;19.60;99.90;;;;;;5093658;28;20052;-53
2022/05/21 08:00:01;;;;;;;8.98;3.00;;;19.40;99.90;;;;;;5080762;28;20398;-50
2022/05/21 08:02:27;;;;;;;10.25;3.45;;;19.30;99.90;;;;;;5083335;28;20055;-53
2022/05/21 08:04:52;;;;;;;13.77;3.40;;;18.90;99.90;;;;;;5083501;28;20040;-51
2022/05/21 08:07:18;;;;;;;11.25;3.50;;;18.70;99.90;;;;;;5081712;28;20444;-49
2022/05/21 08:09:44;;;;;;;11.00;3.38;;;18.60;99.90;;;;;;5080527;28;20083;-51
2022/05/21 08:12:14;;;;;;;11.90;3.38;;;18.50;99.90;;;;;;5078445;28;20490;-52
2022/05/21 08:14:43;;;;;;;13.02;3.58;;;18.50;99.90;;;;;;5082870;28;20051;-53
2022/05/21 08:17:09;;;;;;;12.10;3.42;;;18.70;99.90;;;;;;5081728;28;20105;-50
2022/05/21 08:19:36;;;;;;;12.38;3.22;;;18.90;99.90;;;;;;5081481;28;20083;-52
2022/05/21 08:27:31;;;;;;;14.82;3.15;;;18.80;99.90;;;;;;5083386;28;20055;-52
2022/05/21 08:29:57;;;;;;;16.23;4.07;;;18.80;99.90;;;;;;5078190;28;20056;-52
2022/05/21 08:32:23;;;;;;;12.88;3.08;;;18.50;99.90;;;;;;5075601;28;20052;-52
2022/05/21 08:34:52;;;;;;;14.93;3.67;;;19.00;99.90;;;;;;5088278;28;20071;-55
2022/05/21 08:37:18;;;;;;;10.85;3.13;;;19.20;99.90;;;;;;5085212;28;20060;-54
2022/05/21 08:39:43;;;;;;;8.73;3.05;;;19.40;99.90;;;;;;5086073;28;20709;-56
2022/05/21 08:42:45;;;;;;;15.10;4.25;;;19.30;99.90;;;;;;5082323;28;20032;-53
2022/05/21 08:45:13;;;;;;;11.43;3.70;;;18.90;99.90;;;;;;4998519;28;20603;-52
2022/05/21 08:47:39;;;;;;;14.63;3.47;;;19.00;99.90;;;;;;4997354;28;20596;-52
2022/05/21 08:50:13;;;;;;;11.45;3.00;;;18.90;99.90;;;;;;4971622;28;20184;-53
2022/05/21 08:53:01;;;;;;;10.00;3.45;;;18.60;99.90;;;;;;4998877;28;20052;-48
2022/05/21 08:55:39;;;;;;;12.10;3.05;;;18.60;99.90;;;;;;4982546;28;20057;-54
2022/05/21 08:58:35;;;;;;;9.82;3.50;;;18.70;99.90;;;;;;4982304;28;20053;-56
2022/05/21 09:01:01;;;;;;;11.75;3.40;;;18.90;99.90;;;;;;4999319;28;20045;-54
2022/05/21 09:03:28;;;;;;;15.13;3.28;;;19.30;99.90;;;;;;4998990;28;20068;-52
2022/05/21 09:06:12;;;;;;;11.82;2.92;;;19.60;99.90;;;;;;4982908;28;20049;-52
2022/05/21 09:09:05;;;;;;;10.98;3.30;;;19.70;99.90;;;;;;4982786;28;20061;-50
2022/05/21 09:11:46;;;;;;;9.23;3.03;;;19.10;99.90;;;;;;4991361;28;20417;-54
2022/05/21 09:14:33;;;;;;;9.43;2.58;;;19.10;99.90;;;;;;4998012;28;20046;-56
2022/05/21 09:17:00;;;;;;;15.20;3.70;;;19.00;99.90;;;;;;4998240;28;20042;-52
2022/05/21 09:19:40;;;;;;;15.20;4.50;;;19.10;99.90;;;;;;4998376;28;20128;-55
2022/05/21 09:22:10;;;;;;;10.80;3.30;;;18.80;99.90;;;;;;5041467;28;20064;-49
2022/05/21 09:24:55;;;;;;;12.20;3.35;;;18.40;99.90;;;;;;5081457;28;20071;-56
2022/05/21 09:27:42;;;;;;;13.52;3.70;;;18.50;99.90;;;;;;5076652;28;20410;-49
2022/05/21 09:30:17;;;;;;;11.82;3.10;;;18.60;99.90;;;;;;5078466;28;20086;-50
2022/05/21 09:32:52;;;;;;;8.27;2.47;;;18.50;99.90;;;;;;5073085;28;20051;-52
2022/05/21 09:35:21;;;;;;;9.95;3.05;;;18.40;99.90;;;;;;5080041;28;20445;-53
2022/05/21 09:37:47;;;;;;;12.48;2.85;;;18.20;99.90;;;;;;5074643;28;20040;-53
2022/05/21 09:40:34;;;;;;;9.48;3.10;;;18.20;99.90;;;;;;5080811;28;20090;-52
2022/05/21 09:46:18;;;;;;;12.65;2.92;;;18.10;99.90;;;;;;5017590;28;20056;-53
2022/05/21 09:48:46;;;;;;;12.32;3.83;;;18.10;99.90;;;;;;5001944;28;20060;-51
2022/05/21 09:51:32;;;;;;;12.25;3.20;;;17.90;99.90;;;;;;5020457;28;20144;-50
2022/05/21 09:53:59;;;;;;;10.90;2.78;;;17.80;99.90;;;;;;5004501;28;20057;-48
2022/05/21 09:56:29;;;;;;;9.77;3.20;;;17.70;99.90;;;;;;5017863;28;20127;-53
2022/05/21 09:59:24;;;;;;;10.00;3.00;;;17.80;99.90;;;;;;5018777;28;20057;-55
2022/05/21 10:01:57;;;;;;;16.60;4.75;;;17.90;99.90;;;;;;4992767;28;20057;-53
2022/05/21 10:04:53;;;;;;;11.75;3.40;;;17.80;99.90;;;;;;5018303;28;20057;-52
2022/05/21 10:13:15;;;;;;;8.80;3.03;;;18.40;99.90;;;;;;5015031;28;19979;-51
2022/05/21 10:15:48;;;;;;;12.18;2.72;;;18.40;99.90;;;;;;5020776;28;20436;-49
2022/05/21 10:18:52;;;;;;;8.95;3.13;;;18.40;99.90;;;;;;5003862;28;20049;-53
2022/05/21 10:21:40;;;;;;;;;;;18.20;99.90;;;;;;5013053;28;20079;-52
2022/05/21 10:24:28;;;;;;;12.60;3.38;;;18.40;99.90;;;;;;5083550;28;20408;-55
2022/05/21 10:27:16;;;;;;;16.98;3.88;;;19.00;99.90;;;;;;5065897;28;20048;-52
2022/05/21 10:30:09;;;;;;;9.43;3.28;;;19.30;99.90;;;;;;5070361;28;20052;-51
2022/05/21 10:32:56;;;;;;;9.50;2.88;;;19.10;99.90;;;;;;5056300;28;20044;-49
2022/05/21 10:35:46;;;;;;;11.07;3.83;;;18.80;99.90;;;;;;5080661;28;20052;-46
2022/05/21 10:38:23;;;;;;;11.23;3.00;;;18.50;99.90;;;;;;5080877;28;20639;-50
2022/05/21 10:40:50;;;;;;;14.63;4.50;;;18.70;99.90;;;;;;5079823;28;20051;-52
2022/05/21 10:43:54;;;;;;;13.27;4.13;;;18.80;99.90;;;;;;5084955;28;20079;-49
2022/05/21 10:46:45;;;;;;;8.88;3.00;;;18.70;99.90;;;;;;5069408;28;20151;-49
2022/05/21 10:49:44;;;;;;;11.20;3.58;;;18.50;99.90;;;;;;5082845;28;20083;-55
2022/05/21 10:52:20;;;;;;;15.50;4.32;;;18.70;99.90;;;;;;5076489;28;20048;-52
2022/05/21 10:55:01;;;;;;;8.52;2.97;;;18.90;99.90;;;;;;5065573;28;20106;-55
2022/05/21 10:57:52;;;;;;;9.63;2.83;;;19.20;99.90;;;;;;5078817;28;20048;-51
2022/05/21 11:00:25;;;;;;;6.30;2.30;;;19.40;99.90;;;;;;5076214;28;20048;-50
2022/05/21 11:03:25;;;;;;;9.45;2.97;;;19.60;99.90;;;;;;5065148;28;20083;-52
2022/05/21 11:06:03;;;;;;;12.35;3.15;;;19.40;99.90;;;;;;5083706;28;20051;-51
2022/05/21 11:09:01;;;;;;;13.95;3.00;;;19.30;99.90;;;;;;5077084;28;20525;-54
2022/05/21 11:11:45;;;;;;;10.25;3.33;;;19.60;99.90;;;;;;5075438;28;20047;-51
2022/05/21 11:14:17;;;;;;;14.63;3.03;;;19.60;99.90;;;;;;5088012;28;20052;-54
2022/05/21 11:16:55;;;;;;;13.13;3.00;;;19.80;99.90;;;;;;5084844;28;20048;-49
2022/05/21 11:19:46;;;;;;;11.07;2.80;;;19.80;99.90;;;;;;5081016;28;20052;-54
2022/05/21 11:22:41;;;;;;;18.40;4.28;;;19.60;99.90;;;;;;5066300;28;20098;-52
2022/05/21 11:25:16;;;;;;;12.45;3.30;;;19.40;99.90;;;;;;5079041;28;20056;-55
2022/05/21 11:28:30;;;;;;;11.50;2.70;;;19.20;99.90;;;;;;5082415;28;20105;-53
2022/05/21 11:31:01;;;;;;;12.57;3.53;;;19.20;99.90;;;;;;5067594;28;20064;-51
2022/05/21 11:38:51;;;;;;;12.85;3.47;;;18.90;99.90;;;;;;5074510;28;20497;-51
2022/05/21 11:41:29;;;;;;;13.48;3.63;;;19.10;99.90;;;;;;5107805;27;20603;-48
2022/05/21 11:47:06;;;;;;;15.05;5.78;;;19.40;99.90;;;;;;5107316;27;20047;-52
2022/05/21 11:49:50;;;;;;;6.95;2.90;;;19.50;99.90;;;;;;5096394;27;20516;-54
2022/05/21 11:52:34;;;;;;;12.13;3.20;;;19.60;99.90;;;;;;5090235;28;20058;-55
2022/05/21 11:55:11;;;;;;;12.50;3.13;;;19.60;99.90;;;;;;5100750;27;20048;-51
2022/05/21 11:57:43;;;;;;;7.65;3.00;;;19.70;99.90;;;;;;5083483;28;20143;-51
2022/05/21 12:00:29;;;;;;;8.38;2.60;;;19.50;99.90;;;;;;5104039;27;20073;-49
2022/05/21 12:02:55;;;;;;;8.80;2.40;;;19.20;99.90;;;;;;5104362;27;20419;-53
2022/05/21 12:05:41;;;;;;;13.07;3.38;;;19.10;99.90;;;;;;5107927;27;20039;-55
2022/05/21 12:08:22;;;;;;;12.43;2.72;;;19.30;99.90;;;;;;5097476;28;20105;-51
2022/05/21 12:11:14;;;;;;;11.80;3.63;;;19.70;99.90;;;;;;5100862;27;20449;-52
2022/05/21 12:13:58;;;;;;;12.20;3.38;;;19.80;99.90;;;;;;5081177;27;20149;-50
2022/05/21 12:16:24;;;;;;;10.98;3.20;;;19.40;99.90;;;;;;5078599;28;20075;-45
2022/05/21 12:18:53;;;;;;;10.75;3.08;;;19.40;99.90;;;;;;5102272;27;20051;-55
2022/05/21 12:21:32;;;;;;;12.13;3.40;;;19.30;99.90;;;;;;5102477;27;20047;-52
2022/05/21 12:24:00;;;;;;;10.68;3.35;;;19.20;99.90;;;;;;5082027;28;20054;-48
2022/05/21 12:26:32;;;;;;;9.40;2.75;;;19.10;99.90;;;;;;5079886;28;20109;-55
2022/05/21 12:29:18;;;;;;;10.35;3.10;;;19.10;99.90;;;;;;5103433;27;20050;-47
2022/05/21 12:31:50;;;;;;;9.98;3.17;;;19.20;99.90;;;;;;5087121;28;20059;-53
2022/05/21 12:34:21;;;;;;;16.20;3.40;;;19.20;99.90;;;;;;5075896;28;20411;-56
2022/05/21 12:37:24;;;;;;;14.00;3.53;;;19.00;99.90;;;;;;5065870;28;20618;-52
2022/05/21 12:40:06;;;;;;;9.02;2.80;;;19.20;99.90;;;;;;4999834;28;20100;-51
2022/05/21 12:42:40;;;;;;;10.80;2.85;;;19.20;99.90;;;;;;4984130;28;20520;-52
2022/05/21 12:45:07;;;;;;;9.07;3.00;;;19.20;99.90;;;;;;5004515;28;20052;-50
2022/05/21 12:47:44;;;;;;;10.38;2.50;;;19.30;99.90;;;;;;4983816;28;20104;-52
2022/05/21 12:50:18;;;;;;;11.02;3.22;;;19.10;99.90;;;;;;4994584;28;20058;-51
2022/05/21 12:52:54;;;;;;;11.60;3.22;;;19.00;99.90;;;;;;4981064;28;20216;-51
2022/05/21 12:55:27;;;;;;;10.02;2.90;;;19.00;99.90;;;;;;4993246;28;20057;-48
2022/05/21 12:57:56;;;;;;;8.95;2.38;;;19.10;99.90;;;;;;5008184;28;20045;-49
2022/05/21 13:00:24;;;;;;;9.07;3.30;;;19.10;99.90;;;;;;5009531;28;20050;-52
2022/05/21 13:02:54;;;;;;;10.80;3.22;;;19.00;99.90;;;;;;4991973;28;20612;-52
2022/05/21 13:05:29;;;;;;;8.25;3.05;;;18.90;99.90;;;;;;5008940;28;20088;-50
2022/05/21 13:08:01;;;;;;;10.85;3.40;;;19.00;99.90;;;;;;4986377;28;20480;-53
2022/05/21 13:10:35;;;;;;;8.75;2.75;;;19.10;99.90;;;;;;4981163;28;20624;-50
2022/05/21 13:13:08;;;;;;;11.30;3.08;;;19.50;99.90;;;;;;5009280;28;20115;-52
2022/05/21 13:15:37;;;;;;;11.23;2.65;;;19.80;99.90;;;;;;5045805;28;20060;-49
2022/05/21 13:18:27;;;;;;;9.27;1.98;;;19.80;99.90;;;;;;5071203;28;20490;-53
2022/05/21 13:21:30;;;;;;;8.10;2.05;;;19.80;99.90;;;;;;5080376;28;20113;-51
2022/05/21 13:24:36;;;;;;;7.15;2.38;;;19.90;99.90;;;;;;5080191;28;20079;-54
2022/05/21 13:27:13;;;;;;;11.23;2.60;;;20.20;99.90;;;;;;4981082;28;20183;-52
2022/05/21 13:29:40;;;;;;;10.13;2.55;;;20.20;99.90;;;;;;4995446;28;20046;-49
2022/05/21 13:32:30;;;;;;;10.85;2.35;;;20.20;99.90;;;;;;4997489;28;20093;-48
2022/05/21 13:35:00;;;;;;;8.70;2.53;;;20.40;99.90;;;;;;5011816;28;20064;-56
2022/05/21 13:37:33;;;;;;;7.97;2.30;;;20.50;99.90;;;;;;5000846;28;20670;-51
2022/05/21 13:40:00;;;;;;;;;;;20.20;99.90;;;;;;5016159;28;20645;-51